createdAt,value
2017-10-31T00:01:46.281Z,2.57
2017-10-31T00:04:13.150Z,4.30
2017-10-31T00:06:39.991Z,2.70
2017-10-31T00:09:07.075Z,2.37
2017-10-31T00:11:34.426Z,2.50
2017-10-31T00:14:01.206Z,2.07
2017-10-31T00:16:28.575Z,1.67
2017-10-31T00:18:55.462Z,2.00
2017-10-31T00:21:22.513Z,2.20
2017-10-31T00:23:49.851Z,2.90
2017-10-31T00:26:16.710Z,1.63
2017-10-31T00:28:43.637Z,3.37
2017-10-31T00:31:10.414Z,3.30
2017-10-31T00:33:37.279Z,2.63
2017-10-31T00:36:04.503Z,1.70
2017-10-31T00:38:31.311Z,2.50
2017-10-31T00:40:58.386Z,1.80
2017-10-31T00:43:25.522Z,1.40
2017-10-31T00:45:52.298Z,1.60
2017-10-31T00:48:19.131Z,1.93
2017-10-31T00:50:46.495Z,1.63
2017-10-31T00:53:13.291Z,1.80
2017-10-31T00:55:40.087Z,1.30
2017-10-31T00:58:07.215Z,1.73
2017-10-31T01:00:34.032Z,2.20
2017-10-31T01:03:00.850Z,1.90
2017-10-31T01:05:27.982Z,1.80
2017-10-31T01:07:54.742Z,1.43
2017-10-31T01:10:21.578Z,1.50
2017-10-31T01:12:48.683Z,2.07
2017-10-31T01:15:15.487Z,1.50
2017-10-31T01:17:42.575Z,2.40
2017-10-31T01:20:09.355Z,1.83
2017-10-31T01:22:36.177Z,1.23
2017-10-31T01:25:03.016Z,3.47
2017-10-31T01:27:29.819Z,5.67
2017-10-31T01:29:56.891Z,2.07
2017-10-31T01:32:23.739Z,1.40
2017-10-31T01:34:50.544Z,1.70
2017-10-31T01:37:17.625Z,1.43
2017-10-31T01:39:44.460Z,1.17
2017-10-31T01:42:11.269Z,1.57
2017-10-31T01:44:38.117Z,1.50
2017-10-31T01:47:04.983Z,1.30
2017-10-31T01:49:31.795Z,1.40
2017-10-31T01:51:58.886Z,1.27
2017-10-31T01:54:25.687Z,1.27
2017-10-31T01:56:52.510Z,1.63
2017-10-31T01:59:19.308Z,1.40
2017-10-31T02:01:46.363Z,1.50
2017-10-31T02:04:13.165Z,1.60
2017-10-31T02:06:40.254Z,1.27
2017-10-31T02:09:07.070Z,1.60
2017-10-31T02:11:33.850Z,1.20
2017-10-31T02:14:00.680Z,1.60
2017-10-31T02:16:27.512Z,1.33
2017-10-31T02:18:54.565Z,1.30
2017-10-31T02:21:21.618Z,1.20
2017-10-31T02:23:48.441Z,1.17
2017-10-31T02:26:15.509Z,2.40
2017-10-31T02:28:42.310Z,2.03
2017-10-31T02:31:09.118Z,1.57
2017-10-31T02:33:36.243Z,1.50
2017-10-31T02:36:03.033Z,1.60
2017-10-31T02:38:35.950Z,1.63
2017-10-31T02:41:02.784Z,1.60
2017-10-31T02:43:29.586Z,2.03
2017-10-31T02:45:56.713Z,1.47
2017-10-31T02:48:23.534Z,1.30
2017-10-31T02:50:50.355Z,1.10
2017-10-31T02:53:17.215Z,1.53
2017-10-31T02:55:44.282Z,1.50
2017-10-31T02:58:11.078Z,1.93
2017-10-31T03:00:37.902Z,1.10
2017-10-31T03:03:04.714Z,1.10
2017-10-31T03:05:31.871Z,1.50
2017-10-31T03:07:58.675Z,1.60
2017-10-31T03:10:25.471Z,1.90
2017-10-31T03:12:52.595Z,1.70
2017-10-31T03:15:19.425Z,1.27
2017-10-31T03:17:46.591Z,1.43
2017-10-31T03:20:13.412Z,1.70
2017-10-31T03:22:40.261Z,1.40
2017-10-31T03:25:07.103Z,1.40
2017-10-31T03:27:33.911Z,1.57
2017-10-31T03:30:00.782Z,2.67
2017-10-31T03:32:27.602Z,1.33
2017-10-31T03:34:54.402Z,1.73
2017-10-31T03:37:21.243Z,1.80
2017-10-31T03:39:48.278Z,1.60
2017-10-31T03:42:15.326Z,2.00
2017-10-31T03:44:42.184Z,2.30
2017-10-31T03:47:09.323Z,2.07
2017-10-31T03:49:36.114Z,1.87
2017-10-31T03:52:03.215Z,2.67
2017-10-31T03:54:30.051Z,1.90
2017-10-31T03:56:56.857Z,2.17
2017-10-31T03:59:23.947Z,2.67
2017-10-31T04:01:50.758Z,2.70
2017-10-31T04:04:17.566Z,2.20
2017-10-31T04:06:44.683Z,2.50
2017-10-31T04:09:11.494Z,1.70
2017-10-31T04:11:38.567Z,1.90
2017-10-31T04:14:05.721Z,2.30
2017-10-31T04:16:32.509Z,2.20
2017-10-31T04:18:59.291Z,2.23
2017-10-31T04:21:26.135Z,1.80
2017-10-31T04:23:52.951Z,2.23
2017-10-31T04:26:20.039Z,2.00
2017-10-31T04:28:46.843Z,3.07
2017-10-31T04:31:13.931Z,2.30
2017-10-31T04:33:40.752Z,1.93
2017-10-31T04:36:07.578Z,2.83
2017-10-31T04:38:34.382Z,2.00
2017-10-31T04:41:01.197Z,2.23
2017-10-31T04:43:28.250Z,2.40
2017-10-31T04:45:55.053Z,3.07
2017-10-31T04:48:22.095Z,2.80
2017-10-31T04:50:48.894Z,2.90
2017-10-31T04:53:15.682Z,3.60
2017-10-31T04:55:42.458Z,3.47
2017-10-31T04:58:09.315Z,3.40
2017-10-31T05:00:36.459Z,3.30
2017-10-31T05:03:03.250Z,4.00
2017-10-31T05:05:30.091Z,4.70
2017-10-31T05:07:56.908Z,5.30
2017-10-31T05:10:24.042Z,5.20
2017-10-31T05:12:50.851Z,5.07
2017-10-31T05:15:17.628Z,5.73
2017-10-31T05:17:44.440Z,6.63
2017-10-31T05:20:11.291Z,7.13
2017-10-31T05:22:38.350Z,6.83
2017-10-31T05:25:05.138Z,6.33
2017-10-31T05:27:32.247Z,7.00
2017-10-31T05:29:59.054Z,6.90
2017-10-31T05:32:25.868Z,8.40
2017-10-31T05:34:52.982Z,7.87
2017-10-31T05:37:20.131Z,8.10
2017-10-31T05:39:46.906Z,7.50
2017-10-31T05:42:13.759Z,8.57
2017-10-31T05:44:40.533Z,8.40
2017-10-31T05:47:07.363Z,8.13
2017-10-31T05:49:34.185Z,8.93
2017-10-31T05:52:00.966Z,9.10
2017-10-31T05:54:27.787Z,10.13
2017-10-31T05:56:54.875Z,10.10
2017-10-31T05:59:21.682Z,9.50
2017-10-31T06:01:48.767Z,10.47
2017-10-31T06:04:15.570Z,10.23
2017-10-31T06:06:42.654Z,9.40
2017-10-31T06:09:09.462Z,10.20
2017-10-31T06:11:36.551Z,10.27
2017-10-31T06:14:03.365Z,11.83
2017-10-31T06:16:30.161Z,10.70
2017-10-31T06:18:57.284Z,10.60
2017-10-31T06:21:24.091Z,9.90
2017-10-31T06:23:50.912Z,11.87
2017-10-31T06:26:17.710Z,12.27
2017-10-31T06:28:44.513Z,11.50
2017-10-31T06:31:11.614Z,12.73
2017-10-31T06:33:38.443Z,11.60
2017-10-31T06:36:05.217Z,11.33
2017-10-31T06:38:32.338Z,12.00
2017-10-31T06:40:59.137Z,11.40
2017-10-31T06:43:26.226Z,11.60
2017-10-31T06:45:53.007Z,13.43
2017-10-31T06:48:19.845Z,12.20
2017-10-31T06:50:46.623Z,13.00
2017-10-31T06:53:13.422Z,13.03
2017-10-31T06:55:40.266Z,11.37
2017-10-31T06:58:07.110Z,13.40
2017-10-31T07:00:33.922Z,11.67
2017-10-31T07:03:00.758Z,11.50
2017-10-31T07:05:27.575Z,12.50
2017-10-31T07:07:54.377Z,12.00
2017-10-31T07:10:21.498Z,11.50
2017-10-31T07:12:48.311Z,11.60
2017-10-31T07:15:15.391Z,12.10
2017-10-31T07:17:42.439Z,12.43
2017-10-31T07:20:09.280Z,12.00
2017-10-31T07:22:36.095Z,12.90
2017-10-31T07:25:02.916Z,11.40
2017-10-31T07:27:29.728Z,12.20
2017-10-31T07:29:56.505Z,10.30
2017-10-31T07:32:23.355Z,12.57
2017-10-31T07:34:50.443Z,11.53
2017-10-31T07:37:17.222Z,11.10
2017-10-31T07:39:44.034Z,12.53
2017-10-31T07:42:10.856Z,11.47
2017-10-31T07:44:37.692Z,11.33
2017-10-31T07:47:04.504Z,10.93
2017-10-31T07:49:31.292Z,11.50
2017-10-31T07:51:58.324Z,10.93
2017-10-31T07:54:25.391Z,10.90
2017-10-31T07:56:52.239Z,10.50
2017-10-31T07:59:19.278Z,12.73
2017-10-31T08:01:46.105Z,15.97
2017-10-31T08:04:12.926Z,9.93
2017-10-31T08:06:40.020Z,10.70
2017-10-31T08:09:06.864Z,9.83
2017-10-31T08:11:33.641Z,9.83
2017-10-31T08:14:00.751Z,8.47
2017-10-31T08:16:28.004Z,9.13
2017-10-31T08:18:56.414Z,9.20
2017-10-31T08:21:23.305Z,6.90
2017-10-31T08:23:50.119Z,8.50
2017-10-31T08:26:17.200Z,8.13
2017-10-31T08:28:44.026Z,8.20
2017-10-31T08:31:10.890Z,8.20
2017-10-31T08:33:37.716Z,7.60
2017-10-31T08:36:04.815Z,7.40
2017-10-31T08:38:42.435Z,8.23
2017-10-31T08:41:11.618Z,8.90
2017-10-31T08:43:38.477Z,7.73
2017-10-31T08:46:05.303Z,7.80
2017-10-31T08:48:32.146Z,8.50
2017-10-31T08:50:58.959Z,9.37
2017-10-31T08:53:26.124Z,8.87
2017-10-31T08:55:52.967Z,10.20
2017-10-31T08:58:19.799Z,8.53
2017-10-31T09:00:46.652Z,9.73
2017-10-31T09:03:13.524Z,8.60
2017-10-31T09:05:40.592Z,10.03
2017-10-31T09:08:07.457Z,9.40
2017-10-31T09:10:34.349Z,10.07
2017-10-31T09:13:01.164Z,9.57
2017-10-31T09:15:27.984Z,9.73
2017-10-31T09:17:55.154Z,11.00
2017-10-31T09:20:22.003Z,8.77
2017-10-31T09:22:48.888Z,10.30
2017-10-31T09:25:15.682Z,12.17
2017-10-31T09:27:42.523Z,12.23
2017-10-31T09:41:06.067Z,13.00
2017-10-31T09:43:32.912Z,10.13
2017-10-31T09:46:00.590Z,10.30
2017-10-31T09:48:27.756Z,10.53
2017-10-31T09:50:55.196Z,11.70
2017-10-31T09:53:33.086Z,10.50
2017-10-31T09:56:12.807Z,11.50
2017-10-31T10:01:31.523Z,12.13
2017-10-31T10:04:01.981Z,11.53
2017-10-31T10:06:40.004Z,11.57
2017-10-31T10:09:15.119Z,11.30
2017-10-31T10:11:46.417Z,11.23
2017-10-31T10:14:17.248Z,10.10
2017-10-31T10:16:48.029Z,11.30
2017-10-31T10:19:16.435Z,10.13
2017-10-31T10:21:43.527Z,10.73
2017-10-31T10:24:10.679Z,10.23
2017-10-31T10:26:37.937Z,12.90
2017-10-31T10:29:05.102Z,15.77
2017-10-31T10:31:32.149Z,11.10
2017-10-31T10:33:59.249Z,10.83
2017-10-31T10:36:29.256Z,10.37
2017-10-31T10:38:57.371Z,11.27
2017-10-31T10:41:24.311Z,10.63
2017-10-31T10:43:51.363Z,10.40
2017-10-31T10:46:18.412Z,9.73
2017-10-31T10:48:45.243Z,11.80
2017-10-31T10:51:12.064Z,10.90
2017-10-31T10:53:38.916Z,11.27
2017-10-31T10:56:05.756Z,10.33
2017-10-31T10:58:38.589Z,9.37
2017-10-31T11:01:11.021Z,10.07
2017-10-31T11:03:42.448Z,9.00
2017-10-31T11:06:14.189Z,8.23
2017-10-31T11:08:47.890Z,8.13
2017-10-31T11:11:16.375Z,8.10
2017-10-31T11:13:43.191Z,6.50
2017-10-31T11:16:10.333Z,8.27
2017-10-31T11:18:37.483Z,6.93
2017-10-31T11:21:04.292Z,7.00
2017-10-31T11:23:31.364Z,7.40
2017-10-31T11:25:58.521Z,7.70
2017-10-31T11:28:25.338Z,5.10
2017-10-31T11:30:52.139Z,4.60
2017-10-31T11:33:18.996Z,5.97
2017-10-31T11:35:46.065Z,5.80
2017-10-31T11:38:13.248Z,4.83
2017-10-31T11:40:40.121Z,5.27
2017-10-31T11:43:06.959Z,4.90
2017-10-31T11:45:34.080Z,5.27
2017-10-31T11:48:01.231Z,4.60
2017-10-31T11:50:28.305Z,4.73
2017-10-31T11:52:55.385Z,4.00
2017-10-31T11:55:22.475Z,5.07
2017-10-31T11:57:49.632Z,5.60
2017-10-31T12:00:16.781Z,5.17
2017-10-31T12:02:43.934Z,4.30
2017-10-31T12:05:10.764Z,3.50
2017-10-31T12:07:37.606Z,3.63
2017-10-31T12:10:04.455Z,4.30
2017-10-31T12:12:31.609Z,6.00
2017-10-31T12:14:58.765Z,4.23
2017-10-31T12:17:25.913Z,7.50
2017-10-31T12:19:53.061Z,7.20
2017-10-31T12:22:19.894Z,5.67
2017-10-31T12:24:47.107Z,5.60
2017-10-31T12:27:13.932Z,5.67
2017-10-31T12:29:40.792Z,7.43
2017-10-31T12:32:07.661Z,6.17
2017-10-31T12:34:34.506Z,6.20
2017-10-31T12:37:01.680Z,6.50
2017-10-31T12:39:28.833Z,6.73
2017-10-31T12:41:55.980Z,6.57
2017-10-31T12:44:23.140Z,6.03
2017-10-31T12:46:50.284Z,5.80
2017-10-31T12:49:17.428Z,5.30
2017-10-31T12:51:45.786Z,5.93
2017-10-31T12:54:14.091Z,4.67
2017-10-31T12:56:41.240Z,5.77
2017-10-31T12:59:08.076Z,3.67
2017-10-31T13:01:35.232Z,5.17
2017-10-31T13:04:02.082Z,3.73
2017-10-31T13:06:28.927Z,3.27
2017-10-31T13:08:55.797Z,3.60
2017-10-31T13:11:22.665Z,4.33
2017-10-31T13:13:49.500Z,4.93
2017-10-31T13:16:16.377Z,5.90
2017-10-31T13:18:43.233Z,4.50
2017-10-31T13:21:10.388Z,3.90
2017-10-31T13:23:37.531Z,4.10
2017-10-31T13:26:04.641Z,5.63
2017-10-31T13:28:31.966Z,5.00
2017-10-31T13:30:59.825Z,4.47
2017-10-31T13:33:27.225Z,4.40
2017-10-31T13:35:54.825Z,5.23
2017-10-31T13:38:22.153Z,5.57
2017-10-31T13:40:49.835Z,4.97
2017-10-31T13:43:17.219Z,5.00
2017-10-31T13:45:44.860Z,6.20
2017-10-31T13:48:11.971Z,5.50
2017-10-31T13:50:39.319Z,5.40
2017-10-31T13:53:06.611Z,6.47
2017-10-31T13:55:33.764Z,6.13
2017-10-31T13:58:00.916Z,6.30
2017-10-31T14:00:28.044Z,6.33
2017-10-31T14:02:55.623Z,7.20
2017-10-31T14:05:23.089Z,6.50
2017-10-31T14:07:50.279Z,6.00
2017-10-31T14:10:17.715Z,9.37
2017-10-31T14:12:45.215Z,8.10
2017-10-31T14:15:12.349Z,6.70
2017-10-31T14:17:40.464Z,6.70
2017-10-31T14:20:07.647Z,6.70
2017-10-31T14:22:34.834Z,6.33
2017-10-31T14:25:02.118Z,5.80
2017-10-31T14:27:29.009Z,6.77
2017-10-31T14:29:55.877Z,7.97
2017-10-31T14:32:22.732Z,7.13
2017-10-31T14:34:55.385Z,6.53
2017-10-31T14:37:22.215Z,8.33
2017-10-31T14:39:49.328Z,6.20
2017-10-31T14:42:16.185Z,7.60
2017-10-31T14:44:43.069Z,7.10
2017-10-31T14:47:09.913Z,7.67
2017-10-31T14:49:36.880Z,8.60
2017-10-31T14:52:03.707Z,12.80
2017-10-31T14:54:30.559Z,8.33
2017-10-31T14:56:57.413Z,7.90
2017-10-31T14:59:24.586Z,7.33
2017-10-31T15:01:51.410Z,8.30
2017-10-31T15:04:18.248Z,6.97
2017-10-31T15:06:45.151Z,9.73
2017-10-31T15:09:12.021Z,8.73
2017-10-31T15:11:39.113Z,8.10
2017-10-31T15:14:06.264Z,8.80
2017-10-31T15:16:33.113Z,9.67
2017-10-31T15:18:59.992Z,9.43
2017-10-31T15:21:26.856Z,9.57
2017-10-31T15:23:53.670Z,9.10
2017-10-31T15:26:20.520Z,8.93
2017-10-31T15:28:47.404Z,10.30
2017-10-31T15:31:14.252Z,9.70
2017-10-31T15:33:41.109Z,9.40
2017-10-31T15:36:07.969Z,8.93
2017-10-31T15:38:34.779Z,9.37
2017-10-31T15:41:01.596Z,8.80
2017-10-31T15:43:28.465Z,8.50
2017-10-31T15:45:55.271Z,9.10
2017-10-31T15:48:22.125Z,8.40
2017-10-31T15:50:48.990Z,8.30
2017-10-31T15:53:15.800Z,7.90
2017-10-31T15:55:42.611Z,9.50
2017-10-31T15:58:09.448Z,10.67
2017-10-31T16:00:36.309Z,7.57
2017-10-31T16:03:03.127Z,9.60
2017-10-31T16:05:30.192Z,10.67
2017-10-31T16:07:57.017Z,8.70
2017-10-31T16:10:23.890Z,7.50
2017-10-31T16:12:50.785Z,8.90
2017-10-31T16:15:17.616Z,7.93
2017-10-31T16:17:44.463Z,8.03
2017-10-31T16:20:11.335Z,7.40
2017-10-31T16:22:38.482Z,7.53
2017-10-31T16:25:05.315Z,8.90
2017-10-31T16:27:32.218Z,8.20
2017-10-31T16:29:59.054Z,9.93
2017-10-31T16:32:25.896Z,6.97
2017-10-31T16:34:52.748Z,6.47
2017-10-31T16:37:19.624Z,6.60
2017-10-31T16:39:46.537Z,7.80
2017-10-31T16:42:13.422Z,5.93
2017-10-31T16:44:40.248Z,5.90
2017-10-31T16:47:07.126Z,6.00
2017-10-31T16:49:34.009Z,5.97
2017-10-31T16:52:00.891Z,7.87
2017-10-31T16:54:28.181Z,5.43
2017-10-31T16:56:55.061Z,5.83
2017-10-31T16:59:21.915Z,6.00
2017-10-31T17:01:48.809Z,5.70
2017-10-31T17:04:15.677Z,6.10
2017-10-31T17:06:42.519Z,5.47
2017-10-31T17:09:09.378Z,5.00
2017-10-31T17:11:36.480Z,5.53
2017-10-31T17:14:03.318Z,5.83
2017-10-31T17:16:30.580Z,5.77
2017-10-31T17:18:57.463Z,5.10
2017-10-31T17:21:24.369Z,5.30
2017-10-31T17:23:51.222Z,5.33
2017-10-31T17:26:18.117Z,5.30
2017-10-31T17:28:45.301Z,8.83
2017-10-31T17:31:12.186Z,5.37
2017-10-31T17:33:39.043Z,5.50
2017-10-31T17:36:05.941Z,7.70
2017-10-31T17:38:32.755Z,5.60
2017-10-31T17:40:59.587Z,8.47
2017-10-31T17:43:26.660Z,5.50
2017-10-31T17:45:53.497Z,5.30
2017-10-31T17:48:20.361Z,5.90
2017-10-31T17:50:47.208Z,6.23
2017-10-31T17:53:14.344Z,5.80
2017-10-31T17:55:41.170Z,6.23
2017-10-31T17:58:07.986Z,5.90
2017-10-31T18:00:34.828Z,5.80
2017-10-31T18:03:01.712Z,6.20
2017-10-31T18:05:28.755Z,6.23
2017-10-31T18:07:55.906Z,6.00
2017-10-31T18:10:22.752Z,6.03
2017-10-31T18:12:49.908Z,6.33
2017-10-31T18:15:16.719Z,7.03
2017-10-31T18:17:43.790Z,6.33
2017-10-31T18:20:10.616Z,6.80
2017-10-31T18:22:37.464Z,6.80
2017-10-31T18:25:04.328Z,6.67
2017-10-31T18:27:31.472Z,6.90
2017-10-31T18:29:58.281Z,9.63
2017-10-31T18:32:25.144Z,7.17
2017-10-31T18:34:51.967Z,11.70
2017-10-31T18:37:18.885Z,12.70
2017-10-31T18:39:45.731Z,8.33
2017-10-31T18:42:12.838Z,7.67
2017-10-31T18:44:39.987Z,8.93
2017-10-31T18:47:07.144Z,6.87
2017-10-31T18:49:33.991Z,7.77
2017-10-31T18:52:00.797Z,9.00
2017-10-31T18:54:27.660Z,8.83
2017-10-31T18:56:54.715Z,9.33
2017-10-31T18:59:21.555Z,9.63
2017-10-31T19:01:48.395Z,9.40
2017-10-31T19:04:15.233Z,9.80
2017-10-31T19:06:42.085Z,9.20
2017-10-31T19:09:08.953Z,9.63
2017-10-31T19:11:36.092Z,10.20
2017-10-31T19:14:03.241Z,8.57
2017-10-31T19:16:30.116Z,9.10
2017-10-31T19:18:56.988Z,9.10
2017-10-31T19:21:23.833Z,9.57
2017-10-31T19:23:50.678Z,9.57
2017-10-31T19:26:17.515Z,9.37
2017-10-31T19:28:44.368Z,10.20
2017-10-31T19:31:11.255Z,9.63
2017-10-31T19:33:38.397Z,8.50
2017-10-31T19:36:05.539Z,9.20
2017-10-31T19:38:32.397Z,9.43
2017-10-31T19:40:59.245Z,10.10
2017-10-31T19:43:26.093Z,9.67
2017-10-31T19:45:52.991Z,9.80
2017-10-31T19:48:19.805Z,9.50
2017-10-31T19:50:46.619Z,20.00
2017-10-31T19:53:13.487Z,15.50
2017-10-31T19:55:40.299Z,10.37
2017-10-31T19:58:07.149Z,11.53
2017-10-31T20:00:34.021Z,11.97
2017-10-31T20:03:00.855Z,11.80
2017-10-31T20:05:27.963Z,10.80
2017-10-31T20:07:54.840Z,11.57
2017-10-31T20:10:21.713Z,12.57
2017-10-31T20:12:48.531Z,13.77
2017-10-31T20:15:15.385Z,11.83
2017-10-31T20:17:42.199Z,12.50
2017-10-31T20:20:09.015Z,12.67
2017-10-31T20:22:35.888Z,13.60
2017-10-31T20:25:02.737Z,13.90
2017-10-31T20:27:29.860Z,15.30
2017-10-31T20:29:56.740Z,15.27
2017-10-31T20:32:23.552Z,15.90
2017-10-31T20:34:50.408Z,16.10
2017-10-31T20:37:17.244Z,17.83
2017-10-31T20:39:44.388Z,18.60
2017-10-31T20:42:11.237Z,19.00
2017-10-31T20:44:38.149Z,20.07
2017-10-31T20:47:04.989Z,19.50
2017-10-31T20:49:31.857Z,20.03
2017-10-31T20:51:58.696Z,21.40
2017-10-31T20:54:25.633Z,21.10
2017-10-31T20:56:52.378Z,21.70
2017-10-31T20:59:19.540Z,25.67
2017-10-31T21:01:46.358Z,23.63
2017-10-31T21:04:13.222Z,24.83
2017-10-31T21:06:40.378Z,27.70
2017-10-31T21:09:07.457Z,28.03
2017-10-31T21:11:35.497Z,25.63
2017-10-31T21:14:02.400Z,27.80
2017-10-31T21:16:29.227Z,30.00
2017-10-31T21:18:56.333Z,30.67
2017-10-31T21:21:23.183Z,28.27
2017-10-31T21:23:50.016Z,29.20
2017-10-31T21:26:16.877Z,29.40
2017-10-31T21:28:44.008Z,32.30
2017-10-31T21:31:11.168Z,30.60
2017-10-31T21:33:38.029Z,31.70
2017-10-31T21:36:04.924Z,31.90
2017-10-31T21:38:32.107Z,33.27
2017-10-31T21:40:58.964Z,33.70
2017-10-31T21:43:25.832Z,34.10
2017-10-31T21:45:53.040Z,34.40
2017-10-31T21:48:19.917Z,35.60
2017-10-31T21:50:46.785Z,34.27
2017-10-31T21:53:13.607Z,34.80
2017-10-31T21:55:40.439Z,37.97
2017-10-31T21:58:07.286Z,35.43
2017-10-31T22:00:34.104Z,36.37
2017-10-31T22:03:00.941Z,41.23
2017-10-31T22:05:27.772Z,34.90
2017-10-31T22:07:54.607Z,39.23
2017-10-31T22:10:21.428Z,38.87
2017-10-31T22:12:48.516Z,41.40
2017-10-31T22:15:15.358Z,38.57
2017-10-31T22:17:42.200Z,41.80
2017-10-31T22:20:09.085Z,43.50
2017-10-31T22:22:35.907Z,43.80
2017-10-31T22:25:02.772Z,43.50
2017-10-31T22:27:29.615Z,45.80
2017-10-31T22:29:56.432Z,42.30
2017-10-31T22:32:23.510Z,45.20
2017-10-31T22:34:50.375Z,46.30
2017-10-31T22:37:17.230Z,45.43
2017-10-31T22:39:44.076Z,41.90
2017-10-31T22:42:10.957Z,47.23
2017-10-31T22:44:37.808Z,48.93
2017-10-31T22:47:05.860Z,47.83
2017-10-31T22:49:32.876Z,49.43
2017-10-31T22:51:59.743Z,47.73
2017-10-31T22:54:26.605Z,44.13
2017-10-31T22:56:53.439Z,45.90
2017-10-31T22:59:20.262Z,48.70
2017-10-31T23:01:47.092Z,53.93
2017-10-31T23:04:13.996Z,48.43
2017-10-31T23:06:40.856Z,45.93
2017-10-31T23:09:07.710Z,46.00
2017-10-31T23:11:35.112Z,46.57
2017-10-31T23:14:02.255Z,52.30
2017-10-31T23:16:29.105Z,46.40
2017-10-31T23:18:56.339Z,50.67
2017-10-31T23:21:23.228Z,48.63
2017-10-31T23:23:50.090Z,48.90
2017-10-31T23:26:19.851Z,46.80
2017-10-31T23:28:47.622Z,47.47
2017-10-31T23:31:14.873Z,53.00
2017-10-31T23:33:42.136Z,47.73
2017-10-31T23:36:09.137Z,47.27
2017-10-31T23:38:36.335Z,50.83
2017-10-31T23:41:03.197Z,52.00
2017-10-31T23:43:29.986Z,48.03
2017-10-31T23:45:56.815Z,49.30
2017-10-31T23:48:23.706Z,50.73
2017-10-31T23:50:50.835Z,52.87
2017-10-31T23:53:17.655Z,54.27
2017-10-31T23:55:44.722Z,51.40
2017-10-31T23:58:11.548Z,47.57
